sensor_id;sensor_type;location;lat;lon;timestamp;temperature;humidity
28677;DHT22;15858;48.338;11.078;2024-01-30T00:00:41;0.20;99.90
28677;DHT22;15858;48.338;11.078;2024-01-30T00:03:08;0.20;99.90
28677;DHT22;15858;48.338;11.078;2024-01-30T00:05:34;0.20;99.90
28677;DHT22;15858;48.338;11.078;2024-01-30T00:08:01;0.20;99.90
28677;DHT22;15858;48.338;11.078;2024-01-30T00:10:28;0.30;99.90
28677;DHT22;15858;48.338;11.078;2024-01-30T00:12:54;0.30;99.90
28677;DHT22;15858;48.338;11.078;2024-01-30T00:15:21;0.30;99.90
28677;DHT22;15858;48.338;11.078;2024-01-30T00:17:48;0.20;99.90
28677;DHT22;15858;48.338;11.078;2024-01-30T00:20:15;0.20;99.90
28677;DHT22;15858;48.338;11.078;2024-01-30T00:22:41;0.10;99.90
28677;DHT22;15858;48.338;11.078;2024-01-30T00:25:08;0.10;99.90
28677;DHT22;15858;48.338;11.078;2024-01-30T00:27:35;0.10;99.90
28677;DHT22;15858;48.338;11.078;2024-01-30T00:30:02;0.10;99.90
28677;DHT22;15858;48.338;11.078;2024-01-30T00:32:29;0.10;99.90
28677;DHT22;15858;48.338;11.078;2024-01-30T00:34:55;0.10;99.90
28677;DHT22;15858;48.338;11.078;2024-01-30T00:37:22;0.00;99.90
28677;DHT22;15858;48.338;11.078;2024-01-30T00:39:49;0.10;99.90
28677;DHT22;15858;48.338;11.078;2024-01-30T00:42:16;0.10;99.90
28677;DHT22;15858;48.338;11.078;2024-01-30T00:44:43;0.10;99.90
28677;DHT22;15858;48.338;11.078;2024-01-30T00:47:09;0.10;99.90
28677;DHT22;15858;48.338;11.078;2024-01-30T00:49:36;0.00;99.90
28677;DHT22;15858;48.338;11.078;2024-01-30T00:52:03;-0.20;99.90
28677;DHT22;15858;48.338;11.078;2024-01-30T00:54:30;-0.20;99.90
28677;DHT22;15858;48.338;11.078;2024-01-30T00:56:57;-0.20;99.90
28677;DHT22;15858;48.338;11.078;2024-01-30T00:59:24;-0.10;99.90
28677;DHT22;15858;48.338;11.078;2024-01-30T01:01:50;-0.10;99.90
28677;DHT22;15858;48.338;11.078;2024-01-30T01:04:17;-0.10;99.90
28677;DHT22;15858;48.338;11.078;2024-01-30T01:06:44;-0.10;99.90
28677;DHT22;15858;48.338;11.078;2024-01-30T01:09:11;-0.10;99.90
28677;DHT22;15858;48.338;11.078;2024-01-30T01:11:38;-0.10;99.90
28677;DHT22;15858;48.338;11.078;2024-01-30T01:14:05;-0.10;99.90
28677;DHT22;15858;48.338;11.078;2024-01-30T01:16:32;-0.10;99.90
28677;DHT22;15858;48.338;11.078;2024-01-30T01:18:59;-0.10;99.90
28677;DHT22;15858;48.338;11.078;2024-01-30T01:21:26;-0.20;99.90
28677;DHT22;15858;48.338;11.078;2024-01-30T01:23:53;-0.10;99.90
28677;DHT22;15858;48.338;11.078;2024-01-30T01:26:19;-0.10;99.90
28677;DHT22;15858;48.338;11.078;2024-01-30T01:28:46;-0.20;99.90
28677;DHT22;15858;48.338;11.078;2024-01-30T01:31:13;-0.20;99.90
28677;DHT22;15858;48.338;11.078;2024-01-30T01:33:39;-0.20;99.90
28677;DHT22;15858;48.338;11.078;2024-01-30T01:36:06;-0.20;99.90
28677;DHT22;15858;48.338;11.078;2024-01-30T01:38:33;-0.20;99.90
28677;DHT22;15858;48.338;11.078;2024-01-30T01:41:00;-0.20;99.90
28677;DHT22;15858;48.338;11.078;2024-01-30T01:43:27;-0.20;99.90
28677;DHT22;15858;48.338;11.078;2024-01-30T01:45:53;-0.20;99.90
28677;DHT22;15858;48.338;11.078;2024-01-30T01:48:20;-0.20;99.90
28677;DHT22;15858;48.338;11.078;2024-01-30T01:50:47;-0.30;99.90
28677;DHT22;15858;48.338;11.078;2024-01-30T01:53:15;-0.30;99.90
28677;DHT22;15858;48.338;11.078;2024-01-30T01:55:42;-0.30;99.90
28677;DHT22;15858;48.338;11.078;2024-01-30T01:58:09;-0.30;99.90
28677;DHT22;15858;48.338;11.078;2024-01-30T02:00:36;-0.30;99.90
28677;DHT22;15858;48.338;11.078;2024-01-30T02:03:04;-0.30;99.90
28677;DHT22;15858;48.338;11.078;2024-01-30T02:05:32;-0.40;99.90
28677;DHT22;15858;48.338;11.078;2024-01-30T02:07:59;-0.30;99.90
28677;DHT22;15858;48.338;11.078;2024-01-30T02:10:26;-0.30;99.90
28677;DHT22;15858;48.338;11.078;2024-01-30T02:12:53;-0.40;99.90
28677;DHT22;15858;48.338;11.078;2024-01-30T02:15:19;-0.40;99.90
28677;DHT22;15858;48.338;11.078;2024-01-30T02:17:46;-0.40;99.90
28677;DHT22;15858;48.338;11.078;2024-01-30T02:20:13;-0.40;99.90
28677;DHT22;15858;48.338;11.078;2024-01-30T02:22:40;-0.40;99.90
28677;DHT22;15858;48.338;11.078;2024-01-30T02:25:08;-0.40;99.90
28677;DHT22;15858;48.338;11.078;2024-01-30T02:27:34;-0.40;99.90
28677;DHT22;15858;48.338;11.078;2024-01-30T02:30:01;-0.50;99.90
28677;DHT22;15858;48.338;11.078;2024-01-30T02:32:28;-0.50;99.90
28677;DHT22;15858;48.338;11.078;2024-01-30T02:34:55;-0.50;99.90
28677;DHT22;15858;48.338;11.078;2024-01-30T02:37:22;-0.50;99.90
28677;DHT22;15858;48.338;11.078;2024-01-30T02:39:49;-0.50;99.90
28677;DHT22;15858;48.338;11.078;2024-01-30T02:42:15;-0.50;99.90
28677;DHT22;15858;48.338;11.078;2024-01-30T02:44:42;-0.50;99.90
28677;DHT22;15858;48.338;11.078;2024-01-30T02:47:09;-0.50;99.90
28677;DHT22;15858;48.338;11.078;2024-01-30T02:49:35;-0.60;99.90
28677;DHT22;15858;48.338;11.078;2024-01-30T02:52:02;-0.50;99.90
28677;DHT22;15858;48.338;11.078;2024-01-30T02:54:29;-0.50;99.90
28677;DHT22;15858;48.338;11.078;2024-01-30T02:56:56;-0.50;99.90
28677;DHT22;15858;48.338;11.078;2024-01-30T02:59:23;-0.60;99.90
28677;DHT22;15858;48.338;11.078;2024-01-30T03:01:50;-0.60;99.90
28677;DHT22;15858;48.338;11.078;2024-01-30T03:04:17;-0.60;99.90
28677;DHT22;15858;48.338;11.078;2024-01-30T03:06:47;-0.60;99.90
28677;DHT22;15858;48.338;11.078;2024-01-30T03:09:18;-0.60;99.90
28677;DHT22;15858;48.338;11.078;2024-01-30T03:11:45;-0.60;99.90
28677;DHT22;15858;48.338;11.078;2024-01-30T03:14:12;-0.60;99.90
28677;DHT22;15858;48.338;11.078;2024-01-30T03:16:38;-0.60;99.90
28677;DHT22;15858;48.338;11.078;2024-01-30T03:19:06;-0.70;99.90
28677;DHT22;15858;48.338;11.078;2024-01-30T03:21:33;-0.70;99.90
28677;DHT22;15858;48.338;11.078;2024-01-30T03:24:00;-0.70;99.90
28677;DHT22;15858;48.338;11.078;2024-01-30T03:26:27;-0.70;99.90
28677;DHT22;15858;48.338;11.078;2024-01-30T03:28:53;-0.70;99.90
28677;DHT22;15858;48.338;11.078;2024-01-30T03:31:20;-0.70;99.90
28677;DHT22;15858;48.338;11.078;2024-01-30T03:33:47;-0.70;99.90
28677;DHT22;15858;48.338;11.078;2024-01-30T03:36:15;-0.70;99.90
28677;DHT22;15858;48.338;11.078;2024-01-30T03:38:42;-0.70;99.90
28677;DHT22;15858;48.338;11.078;2024-01-30T03:41:09;-0.70;99.90
28677;DHT22;15858;48.338;11.078;2024-01-30T03:43:36;-0.70;99.90
28677;DHT22;15858;48.338;11.078;2024-01-30T03:46:03;-0.70;99.90
28677;DHT22;15858;48.338;11.078;2024-01-30T03:48:30;-0.70;99.90
28677;DHT22;15858;48.338;11.078;2024-01-30T03:50:57;-0.70;99.90
28677;DHT22;15858;48.338;11.078;2024-01-30T03:53:24;-0.80;99.90
28677;DHT22;15858;48.338;11.078;2024-01-30T03:55:50;-0.80;99.90
28677;DHT22;15858;48.338;11.078;2024-01-30T03:58:17;-0.80;99.90
28677;DHT22;15858;48.338;11.078;2024-01-30T04:00:44;-0.80;99.90
28677;DHT22;15858;48.338;11.078;2024-01-30T04:03:11;-0.90;99.90
28677;DHT22;15858;48.338;11.078;2024-01-30T04:05:37;-0.90;99.90
28677;DHT22;15858;48.338;11.078;2024-01-30T04:08:04;-0.90;99.90
28677;DHT22;15858;48.338;11.078;2024-01-30T04:10:31;-0.90;99.90
28677;DHT22;15858;48.338;11.078;2024-01-30T04:12:58;-0.90;99.90
28677;DHT22;15858;48.338;11.078;2024-01-30T04:15:25;-0.90;99.90
28677;DHT22;15858;48.338;11.078;2024-01-30T04:17:52;-0.90;99.90
28677;DHT22;15858;48.338;11.078;2024-01-30T04:20:19;-0.90;99.90
28677;DHT22;15858;48.338;11.078;2024-01-30T04:22:46;-0.90;99.90
28677;DHT22;15858;48.338;11.078;2024-01-30T04:25:13;-0.80;99.90
28677;DHT22;15858;48.338;11.078;2024-01-30T04:27:40;-0.90;99.90
28677;DHT22;15858;48.338;11.078;2024-01-30T04:30:07;-0.90;99.90
28677;DHT22;15858;48.338;11.078;2024-01-30T04:32:35;-0.90;99.90
28677;DHT22;15858;48.338;11.078;2024-01-30T04:35:02;-0.90;99.90
28677;DHT22;15858;48.338;11.078;2024-01-30T04:37:33;-0.90;99.90
28677;DHT22;15858;48.338;11.078;2024-01-30T04:39:59;-0.90;99.90
28677;DHT22;15858;48.338;11.078;2024-01-30T04:42:26;-0.90;99.90
28677;DHT22;15858;48.338;11.078;2024-01-30T04:44:53;-0.90;99.90
28677;DHT22;15858;48.338;11.078;2024-01-30T04:47:20;-0.90;99.90
28677;DHT22;15858;48.338;11.078;2024-01-30T04:49:46;-0.90;99.90
28677;DHT22;15858;48.338;11.078;2024-01-30T04:52:13;-0.90;99.90
28677;DHT22;15858;48.338;11.078;2024-01-30T04:54:40;-0.90;99.90
28677;DHT22;15858;48.338;11.078;2024-01-30T04:57:06;-0.90;99.90
28677;DHT22;15858;48.338;11.078;2024-01-30T04:59:33;-0.90;99.90
28677;DHT22;15858;48.338;11.078;2024-01-30T05:02:00;-1.00;99.90
28677;DHT22;15858;48.338;11.078;2024-01-30T05:04:27;-1.00;99.90
28677;DHT22;15858;48.338;11.078;2024-01-30T05:06:54;-1.00;99.90
28677;DHT22;15858;48.338;11.078;2024-01-30T05:09:20;-1.00;99.90
28677;DHT22;15858;48.338;11.078;2024-01-30T05:11:47;-1.00;99.90
28677;DHT22;15858;48.338;11.078;2024-01-30T05:14:14;-1.00;99.90
28677;DHT22;15858;48.338;11.078;2024-01-30T05:16:41;-1.00;99.90
28677;DHT22;15858;48.338;11.078;2024-01-30T05:19:07;-1.00;99.90
28677;DHT22;15858;48.338;11.078;2024-01-30T05:21:34;-1.00;99.90
28677;DHT22;15858;48.338;11.078;2024-01-30T05:24:01;-1.00;99.90
28677;DHT22;15858;48.338;11.078;2024-01-30T05:26:27;-1.00;99.90
28677;DHT22;15858;48.338;11.078;2024-01-30T05:28:54;-1.00;99.90
28677;DHT22;15858;48.338;11.078;2024-01-30T05:31:21;-1.00;99.90
28677;DHT22;15858;48.338;11.078;2024-01-30T05:33:48;-1.00;99.90
28677;DHT22;15858;48.338;11.078;2024-01-30T05:36:15;-1.00;99.90
28677;DHT22;15858;48.338;11.078;2024-01-30T05:38:41;-1.00;99.90
28677;DHT22;15858;48.338;11.078;2024-01-30T05:41:08;-1.10;99.90
28677;DHT22;15858;48.338;11.078;2024-01-30T05:43:35;-1.10;99.90
28677;DHT22;15858;48.338;11.078;2024-01-30T05:46:02;-1.10;99.90
28677;DHT22;15858;48.338;11.078;2024-01-30T05:48:28;-1.10;99.90
28677;DHT22;15858;48.338;11.078;2024-01-30T05:50:55;-1.10;99.90
28677;DHT22;15858;48.338;11.078;2024-01-30T05:53:22;-1.10;99.90
28677;DHT22;15858;48.338;11.078;2024-01-30T05:55:49;-1.10;99.90
28677;DHT22;15858;48.338;11.078;2024-01-30T05:58:15;-1.10;99.90
28677;DHT22;15858;48.338;11.078;2024-01-30T06:00:42;-1.10;99.90
28677;DHT22;15858;48.338;11.078;2024-01-30T06:03:09;-1.10;99.90
28677;DHT22;15858;48.338;11.078;2024-01-30T06:05:36;-1.10;99.90
28677;DHT22;15858;48.338;11.078;2024-01-30T06:08:02;-1.10;99.90
28677;DHT22;15858;48.338;11.078;2024-01-30T06:10:29;-1.10;99.90
28677;DHT22;15858;48.338;11.078;2024-01-30T06:12:56;-1.10;99.90
28677;DHT22;15858;48.338;11.078;2024-01-30T06:15:23;-1.20;99.90
28677;DHT22;15858;48.338;11.078;2024-01-30T06:17:49;-1.20;99.90
28677;DHT22;15858;48.338;11.078;2024-01-30T06:20:16;-1.10;99.90
28677;DHT22;15858;48.338;11.078;2024-01-30T06:22:43;-1.10;99.90
28677;DHT22;15858;48.338;11.078;2024-01-30T06:25:10;-1.10;99.90
28677;DHT22;15858;48.338;11.078;2024-01-30T06:27:36;-1.10;99.90
28677;DHT22;15858;48.338;11.078;2024-01-30T06:30:04;-1.10;99.90
28677;DHT22;15858;48.338;11.078;2024-01-30T06:32:31;-1.20;99.90
28677;DHT22;15858;48.338;11.078;2024-01-30T06:34:58;-1.10;99.90
28677;DHT22;15858;48.338;11.078;2024-01-30T06:37:25;-1.10;99.90
28677;DHT22;15858;48.338;11.078;2024-01-30T06:39:52;-1.10;99.90
28677;DHT22;15858;48.338;11.078;2024-01-30T06:42:19;-1.20;99.90
28677;DHT22;15858;48.338;11.078;2024-01-30T06:44:45;-1.20;99.90
28677;DHT22;15858;48.338;11.078;2024-01-30T06:47:12;-1.20;99.90
28677;DHT22;15858;48.338;11.078;2024-01-30T06:49:41;-1.10;99.90
28677;DHT22;15858;48.338;11.078;2024-01-30T06:52:08;-1.10;99.90
28677;DHT22;15858;48.338;11.078;2024-01-30T06:54:35;-1.10;99.90
28677;DHT22;15858;48.338;11.078;2024-01-30T06:57:02;-1.10;99.90
28677;DHT22;15858;48.338;11.078;2024-01-30T06:59:28;-1.20;99.90
28677;DHT22;15858;48.338;11.078;2024-01-30T07:01:55;-1.10;99.90
28677;DHT22;15858;48.338;11.078;2024-01-30T07:04:22;-1.10;99.90
28677;DHT22;15858;48.338;11.078;2024-01-30T07:06:49;-1.10;99.90
28677;DHT22;15858;48.338;11.078;2024-01-30T07:09:16;-1.10;99.90
28677;DHT22;15858;48.338;11.078;2024-01-30T07:11:42;-1.10;99.90
28677;DHT22;15858;48.338;11.078;2024-01-30T07:14:09;-1.10;99.90
28677;DHT22;15858;48.338;11.078;2024-01-30T07:16:36;-1.00;99.90
28677;DHT22;15858;48.338;11.078;2024-01-30T07:19:03;-1.00;99.90
28677;DHT22;15858;48.338;11.078;2024-01-30T07:21:30;-1.00;99.90
28677;DHT22;15858;48.338;11.078;2024-01-30T07:23:57;-1.00;99.90
28677;DHT22;15858;48.338;11.078;2024-01-30T07:26:24;-0.80;99.90
28677;DHT22;15858;48.338;11.078;2024-01-30T07:28:50;-0.30;99.90
28677;DHT22;15858;48.338;11.078;2024-01-30T07:31:17;0.60;99.90
28677;DHT22;15858;48.338;11.078;2024-01-30T07:33:44;1.50;99.90
28677;DHT22;15858;48.338;11.078;2024-01-30T07:36:11;2.10;99.90
28677;DHT22;15858;48.338;11.078;2024-01-30T07:38:37;2.20;99.90
28677;DHT22;15858;48.338;11.078;2024-01-30T07:41:04;2.20;99.90
28677;DHT22;15858;48.338;11.078;2024-01-30T07:43:31;2.00;99.90
28677;DHT22;15858;48.338;11.078;2024-01-30T07:45:58;1.60;99.90
28677;DHT22;15858;48.338;11.078;2024-01-30T07:48:24;1.50;99.90
28677;DHT22;15858;48.338;11.078;2024-01-30T07:50:51;1.40;99.90
28677;DHT22;15858;48.338;11.078;2024-01-30T07:53:18;1.30;99.90
28677;DHT22;15858;48.338;11.078;2024-01-30T07:55:44;1.20;99.90
28677;DHT22;15858;48.338;11.078;2024-01-30T07:58:11;1.10;99.90
28677;DHT22;15858;48.338;11.078;2024-01-30T08:00:38;1.00;99.90
28677;DHT22;15858;48.338;11.078;2024-01-30T08:03:05;0.90;99.90
28677;DHT22;15858;48.338;11.078;2024-01-30T08:05:32;0.80;99.90
28677;DHT22;15858;48.338;11.078;2024-01-30T08:07:58;0.70;99.90
28677;DHT22;15858;48.338;11.078;2024-01-30T08:10:25;0.70;99.90
28677;DHT22;15858;48.338;11.078;2024-01-30T08:12:52;0.70;99.90
28677;DHT22;15858;48.338;11.078;2024-01-30T08:15:19;0.70;99.90
28677;DHT22;15858;48.338;11.078;2024-01-30T08:17:45;0.70;99.90
28677;DHT22;15858;48.338;11.078;2024-01-30T08:20:12;0.80;99.90
28677;DHT22;15858;48.338;11.078;2024-01-30T08:22:40;0.80;99.90
28677;DHT22;15858;48.338;11.078;2024-01-30T08:25:07;0.80;99.90
28677;DHT22;15858;48.338;11.078;2024-01-30T08:27:34;0.90;99.90
28677;DHT22;15858;48.338;11.078;2024-01-30T08:30:02;0.90;99.90
28677;DHT22;15858;48.338;11.078;2024-01-30T08:32:29;0.90;99.90
28677;DHT22;15858;48.338;11.078;2024-01-30T08:34:55;1.00;99.90
28677;DHT22;15858;48.338;11.078;2024-01-30T08:37:22;1.00;99.90
28677;DHT22;15858;48.338;11.078;2024-01-30T08:39:49;1.10;99.90
28677;DHT22;15858;48.338;11.078;2024-01-30T08:42:16;1.10;99.90
28677;DHT22;15858;48.338;11.078;2024-01-30T08:44:43;1.20;99.90
28677;DHT22;15858;48.338;11.078;2024-01-30T08:47:09;1.20;99.90
28677;DHT22;15858;48.338;11.078;2024-01-30T08:49:36;1.30;99.90
28677;DHT22;15858;48.338;11.078;2024-01-30T08:52:03;1.40;99.90
28677;DHT22;15858;48.338;11.078;2024-01-30T08:54:30;1.40;99.90
28677;DHT22;15858;48.338;11.078;2024-01-30T08:56:57;1.50;99.90
28677;DHT22;15858;48.338;11.078;2024-01-30T08:59:23;1.60;99.90
28677;DHT22;15858;48.338;11.078;2024-01-30T09:01:50;1.70;99.90
28677;DHT22;15858;48.338;11.078;2024-01-30T09:04:32;1.80;99.90
28677;DHT22;15858;48.338;11.078;2024-01-30T09:06:59;1.90;99.90
28677;DHT22;15858;48.338;11.078;2024-01-30T09:09:26;2.00;99.90
28677;DHT22;15858;48.338;11.078;2024-01-30T09:11:52;2.10;99.90
28677;DHT22;15858;48.338;11.078;2024-01-30T09:14:19;2.20;99.90
28677;DHT22;15858;48.338;11.078;2024-01-30T09:16:46;2.20;99.90
28677;DHT22;15858;48.338;11.078;2024-01-30T09:19:12;2.30;99.90
28677;DHT22;15858;48.338;11.078;2024-01-30T09:21:39;2.30;99.90
28677;DHT22;15858;48.338;11.078;2024-01-30T09:24:06;2.40;99.90
28677;DHT22;15858;48.338;11.078;2024-01-30T09:26:33;2.50;99.90
28677;DHT22;15858;48.338;11.078;2024-01-30T09:29:00;2.60;99.90
28677;DHT22;15858;48.338;11.078;2024-01-30T09:31:26;2.70;99.90
28677;DHT22;15858;48.338;11.078;2024-01-30T09:33:53;2.80;99.90
28677;DHT22;15858;48.338;11.078;2024-01-30T09:36:20;2.90;99.90
28677;DHT22;15858;48.338;11.078;2024-01-30T09:38:47;2.90;99.90
28677;DHT22;15858;48.338;11.078;2024-01-30T09:41:14;3.00;99.90
28677;DHT22;15858;48.338;11.078;2024-01-30T09:43:47;3.10;99.90
28677;DHT22;15858;48.338;11.078;2024-01-30T09:46:15;3.30;99.90
28677;DHT22;15858;48.338;11.078;2024-01-30T09:48:43;3.40;99.90
28677;DHT22;15858;48.338;11.078;2024-01-30T09:51:11;3.60;99.90
28677;DHT22;15858;48.338;11.078;2024-01-30T09:53:41;3.70;99.90
28677;DHT22;15858;48.338;11.078;2024-01-30T09:56:08;3.80;99.90
28677;DHT22;15858;48.338;11.078;2024-01-30T09:58:35;3.90;99.90
28677;DHT22;15858;48.338;11.078;2024-01-30T10:01:01;4.20;99.90
28677;DHT22;15858;48.338;11.078;2024-01-30T10:03:28;4.30;99.90
28677;DHT22;15858;48.338;11.078;2024-01-30T10:05:56;4.50;99.90
28677;DHT22;15858;48.338;11.078;2024-01-30T10:08:22;4.50;99.90
28677;DHT22;15858;48.338;11.078;2024-01-30T10:10:50;4.50;99.90
28677;DHT22;15858;48.338;11.078;2024-01-30T10:13:17;4.70;99.90
28677;DHT22;15858;48.338;11.078;2024-01-30T10:15:44;4.70;99.90
28677;DHT22;15858;48.338;11.078;2024-01-30T10:18:11;4.90;99.90
28677;DHT22;15858;48.338;11.078;2024-01-30T10:20:38;5.10;99.90
28677;DHT22;15858;48.338;11.078;2024-01-30T10:23:05;5.30;99.90
28677;DHT22;15858;48.338;11.078;2024-01-30T10:25:32;5.30;99.90
28677;DHT22;15858;48.338;11.078;2024-01-30T10:27:59;5.40;99.90
28677;DHT22;15858;48.338;11.078;2024-01-30T10:30:27;5.50;99.90
28677;DHT22;15858;48.338;11.078;2024-01-30T10:32:54;5.60;99.90
28677;DHT22;15858;48.338;11.078;2024-01-30T10:35:21;5.80;99.90
28677;DHT22;15858;48.338;11.078;2024-01-30T10:37:48;5.90;99.90
28677;DHT22;15858;48.338;11.078;2024-01-30T10:40:15;6.00;99.90
28677;DHT22;15858;48.338;11.078;2024-01-30T10:42:45;6.20;99.90
28677;DHT22;15858;48.338;11.078;2024-01-30T10:45:13;6.40;99.90
28677;DHT22;15858;48.338;11.078;2024-01-30T10:47:50;6.70;99.90
28677;DHT22;15858;48.338;11.078;2024-01-30T10:50:20;6.70;99.90
28677;DHT22;15858;48.338;11.078;2024-01-30T10:52:47;6.90;99.90
28677;DHT22;15858;48.338;11.078;2024-01-30T10:55:15;6.90;99.90
28677;DHT22;15858;48.338;11.078;2024-01-30T10:57:42;6.90;99.90
28677;DHT22;15858;48.338;11.078;2024-01-30T11:00:14;7.00;99.90
28677;DHT22;15858;48.338;11.078;2024-01-30T11:02:44;7.00;99.90
28677;DHT22;15858;48.338;11.078;2024-01-30T11:05:12;7.00;99.90
28677;DHT22;15858;48.338;11.078;2024-01-30T11:07:40;7.00;99.90
28677;DHT22;15858;48.338;11.078;2024-01-30T11:10:07;7.00;99.90
28677;DHT22;15858;48.338;11.078;2024-01-30T11:12:38;7.00;99.90
28677;DHT22;15858;48.338;11.078;2024-01-30T11:15:09;7.00;99.90
28677;DHT22;15858;48.338;11.078;2024-01-30T11:20:22;7.10;99.90
28677;DHT22;15858;48.338;11.078;2024-01-30T11:22:51;7.00;99.90
28677;DHT22;15858;48.338;11.078;2024-01-30T11:25:20;7.00;99.90
28677;DHT22;15858;48.338;11.078;2024-01-30T11:27:50;7.10;99.90
28677;DHT22;15858;48.338;11.078;2024-01-30T11:30:28;7.10;99.90
28677;DHT22;15858;48.338;11.078;2024-01-30T11:33:04;7.40;99.90
28677;DHT22;15858;48.338;11.078;2024-01-30T11:35:40;7.40;99.90
28677;DHT22;15858;48.338;11.078;2024-01-30T11:38:07;7.60;99.90
28677;DHT22;15858;48.338;11.078;2024-01-30T11:40:36;7.80;99.90
28677;DHT22;15858;48.338;11.078;2024-01-30T11:43:05;7.90;99.90
28677;DHT22;15858;48.338;11.078;2024-01-30T11:45:32;8.10;99.90
28677;DHT22;15858;48.338;11.078;2024-01-30T11:48:00;8.20;99.90
28677;DHT22;15858;48.338;11.078;2024-01-30T11:50:27;8.20;99.90
28677;DHT22;15858;48.338;11.078;2024-01-30T11:52:54;8.30;99.90
28677;DHT22;15858;48.338;11.078;2024-01-30T11:55:23;8.30;99.90
28677;DHT22;15858;48.338;11.078;2024-01-30T11:57:50;8.30;99.90
28677;DHT22;15858;48.338;11.078;2024-01-30T12:00:18;8.40;99.90
28677;DHT22;15858;48.338;11.078;2024-01-30T12:02:53;8.30;99.90
28677;DHT22;15858;48.338;11.078;2024-01-30T12:05:19;8.30;99.90
28677;DHT22;15858;48.338;11.078;2024-01-30T12:07:46;8.30;99.90
28677;DHT22;15858;48.338;11.078;2024-01-30T12:10:14;8.50;99.90
28677;DHT22;15858;48.338;11.078;2024-01-30T12:12:45;8.50;99.90
28677;DHT22;15858;48.338;11.078;2024-01-30T12:15:12;8.50;99.90
28677;DHT22;15858;48.338;11.078;2024-01-30T12:17:40;8.50;99.90
28677;DHT22;15858;48.338;11.078;2024-01-30T12:20:11;8.60;99.90
28677;DHT22;15858;48.338;11.078;2024-01-30T12:22:43;8.60;99.90
28677;DHT22;15858;48.338;11.078;2024-01-30T12:25:15;8.60;99.90
28677;DHT22;15858;48.338;11.078;2024-01-30T12:27:44;8.60;99.90
28677;DHT22;15858;48.338;11.078;2024-01-30T12:30:12;8.60;99.90
28677;DHT22;15858;48.338;11.078;2024-01-30T12:32:42;8.60;99.90
28677;DHT22;15858;48.338;11.078;2024-01-30T12:35:14;8.70;99.90
28677;DHT22;15858;48.338;11.078;2024-01-30T12:37:41;8.70;99.90
28677;DHT22;15858;48.338;11.078;2024-01-30T12:40:09;8.70;99.90
28677;DHT22;15858;48.338;11.078;2024-01-30T12:42:36;8.80;99.90
28677;DHT22;15858;48.338;11.078;2024-01-30T12:45:04;8.90;99.90
28677;DHT22;15858;48.338;11.078;2024-01-30T12:47:31;8.90;99.90
28677;DHT22;15858;48.338;11.078;2024-01-30T12:49:58;9.00;99.90
28677;DHT22;15858;48.338;11.078;2024-01-30T12:52:25;9.10;99.90
28677;DHT22;15858;48.338;11.078;2024-01-30T12:54:53;9.20;99.90
28677;DHT22;15858;48.338;11.078;2024-01-30T12:57:19;9.30;99.90
28677;DHT22;15858;48.338;11.078;2024-01-30T12:59:47;9.40;99.90
28677;DHT22;15858;48.338;11.078;2024-01-30T13:02:13;9.50;99.90
28677;DHT22;15858;48.338;11.078;2024-01-30T13:04:41;9.50;99.90
28677;DHT22;15858;48.338;11.078;2024-01-30T13:07:10;9.50;99.90
28677;DHT22;15858;48.338;11.078;2024-01-30T13:09:37;9.50;99.90
28677;DHT22;15858;48.338;11.078;2024-01-30T13:12:04;9.50;99.90
28677;DHT22;15858;48.338;11.078;2024-01-30T13:14:31;9.50;99.90
28677;DHT22;15858;48.338;11.078;2024-01-30T13:16:58;9.50;99.90
28677;DHT22;15858;48.338;11.078;2024-01-30T13:19:25;9.50;99.90
28677;DHT22;15858;48.338;11.078;2024-01-30T13:21:52;9.40;99.90
28677;DHT22;15858;48.338;11.078;2024-01-30T13:24:19;9.30;99.90
28677;DHT22;15858;48.338;11.078;2024-01-30T13:26:45;9.20;99.90
28677;DHT22;15858;48.338;11.078;2024-01-30T13:29:12;9.20;99.90
28677;DHT22;15858;48.338;11.078;2024-01-30T13:31:39;9.20;99.90
28677;DHT22;15858;48.338;11.078;2024-01-30T13:34:06;9.10;99.90
28677;DHT22;15858;48.338;11.078;2024-01-30T13:36:34;9.10;99.90
28677;DHT22;15858;48.338;11.078;2024-01-30T13:39:01;9.10;99.90
28677;DHT22;15858;48.338;11.078;2024-01-30T13:41:28;9.10;99.90
28677;DHT22;15858;48.338;11.078;2024-01-30T13:43:55;9.10;99.90
28677;DHT22;15858;48.338;11.078;2024-01-30T13:46:21;9.10;99.90
28677;DHT22;15858;48.338;11.078;2024-01-30T13:48:48;9.10;99.90
28677;DHT22;15858;48.338;11.078;2024-01-30T13:51:15;9.10;99.90
28677;DHT22;15858;48.338;11.078;2024-01-30T13:53:42;9.10;99.90
28677;DHT22;15858;48.338;11.078;2024-01-30T13:56:08;9.10;99.90
28677;DHT22;15858;48.338;11.078;2024-01-30T13:58:35;9.10;99.90
28677;DHT22;15858;48.338;11.078;2024-01-30T14:01:02;9.10;99.90
28677;DHT22;15858;48.338;11.078;2024-01-30T14:03:30;9.10;99.90
28677;DHT22;15858;48.338;11.078;2024-01-30T14:05:57;9.10;99.90
28677;DHT22;15858;48.338;11.078;2024-01-30T14:08:24;9.00;99.90
28677;DHT22;15858;48.338;11.078;2024-01-30T14:10:50;9.10;99.90
28677;DHT22;15858;48.338;11.078;2024-01-30T14:13:17;9.10;99.90
28677;DHT22;15858;48.338;11.078;2024-01-30T14:15:44;9.00;99.90
28677;DHT22;15858;48.338;11.078;2024-01-30T14:18:10;9.00;99.90
28677;DHT22;15858;48.338;11.078;2024-01-30T14:20:37;9.00;99.90
28677;DHT22;15858;48.338;11.078;2024-01-30T14:23:04;9.00;99.90
28677;DHT22;15858;48.338;11.078;2024-01-30T14:25:31;9.00;99.90
28677;DHT22;15858;48.338;11.078;2024-01-30T14:27:57;9.00;99.90
28677;DHT22;15858;48.338;11.078;2024-01-30T14:30:24;9.10;99.90
28677;DHT22;15858;48.338;11.078;2024-01-30T14:32:51;9.10;99.90
28677;DHT22;15858;48.338;11.078;2024-01-30T14:35:18;9.10;99.90
28677;DHT22;15858;48.338;11.078;2024-01-30T14:37:45;9.10;99.90
28677;DHT22;15858;48.338;11.078;2024-01-30T14:40:11;9.10;99.90
28677;DHT22;15858;48.338;11.078;2024-01-30T14:42:38;9.10;99.90
28677;DHT22;15858;48.338;11.078;2024-01-30T14:45:06;9.10;99.90
28677;DHT22;15858;48.338;11.078;2024-01-30T14:47:33;9.10;99.90
28677;DHT22;15858;48.338;11.078;2024-01-30T14:50:01;9.10;99.90
28677;DHT22;15858;48.338;11.078;2024-01-30T14:52:29;9.10;99.90
28677;DHT22;15858;48.338;11.078;2024-01-30T14:54:56;9.10;99.90
28677;DHT22;15858;48.338;11.078;2024-01-30T14:57:23;9.00;99.90
28677;DHT22;15858;48.338;11.078;2024-01-30T14:59:52;9.00;99.90
28677;DHT22;15858;48.338;11.078;2024-01-30T15:02:19;9.00;99.90
28677;DHT22;15858;48.338;11.078;2024-01-30T15:04:46;9.00;99.90
28677;DHT22;15858;48.338;11.078;2024-01-30T15:07:13;8.90;99.90
28677;DHT22;15858;48.338;11.078;2024-01-30T15:09:51;8.90;99.90
28677;DHT22;15858;48.338;11.078;2024-01-30T15:12:18;8.90;99.90
28677;DHT22;15858;48.338;11.078;2024-01-30T15:14:45;8.90;99.90
28677;DHT22;15858;48.338;11.078;2024-01-30T15:17:11;8.90;99.90
28677;DHT22;15858;48.338;11.078;2024-01-30T15:19:38;8.80;99.90
28677;DHT22;15858;48.338;11.078;2024-01-30T15:22:05;8.70;99.90
28677;DHT22;15858;48.338;11.078;2024-01-30T15:24:32;8.70;99.90
28677;DHT22;15858;48.338;11.078;2024-01-30T15:26:58;8.60;99.90